Time,TemperatureF,DewpointF,PressureIn,WindDirection,WindDirectionDegrees,WindSpeedMPH,WindSpeedGustMPH,Humidity,HourlyPrecipIn,Conditions,Clouds,dailyrainin,SoftwareType,DateUTC
2013-08-29 00:12:00,71.4,71.1,29.67,West,265,0.0,0.0,99,0.00,,,0.00,Wunderground v.1.15,2013-08-29 04:12:00,
2013-08-29 00:42:00,70.8,70.5,29.68,West,264,0.0,0.0,99,0.00,,,0.00,Wunderground v.1.15,2013-08-29 04:42:00,
2013-08-29 01:12:00,71.0,70.7,29.68,West,264,0.0,0.0,99,0.00,,,0.00,Wunderground v.1.15,2013-08-29 05:12:00,
2013-08-29 01:42:00,70.6,70.3,29.68,West,264,0.0,0.0,99,0.00,,,0.00,Wunderground v.1.15,2013-08-29 05:42:00,
2013-08-29 02:12:00,70.5,70.2,29.68,West,265,0.0,0.0,99,0.00,,,0.00,Wunderground v.1.15,2013-08-29 06:12:00,
2013-08-29 02:42:00,70.4,70.1,29.68,West,265,0.0,0.0,99,0.00,,,0.00,Wunderground v.1.15,2013-08-29 06:42:00,
2013-08-29 03:12:00,70.9,70.6,29.69,WNW,292,0.0,0.0,99,0.00,,,0.00,Wunderground v.1.15,2013-08-29 07:12:00,
2013-08-29 03:42:00,70.8,70.8,29.69,WNW,292,0.0,0.0,100,0.00,,,0.00,Wunderground v.1.15,2013-08-29 07:42:00,
2013-08-29 04:12:00,70.9,70.9,29.70,WNW,292,0.0,0.0,100,0.00,,,0.00,Wunderground v.1.15,2013-08-29 08:12:00,
2013-08-29 04:42:00,71.0,71.0,29.71,WNW,292,0.0,0.0,100,0.00,,,0.00,Wunderground v.1.15,2013-08-29 08:42:00,
2013-08-29 05:12:00,71.0,71.0,29.71,WNW,292,0.0,0.0,100,0.00,,,0.00,Wunderground v.1.15,2013-08-29 09:12:00,
2013-08-29 05:42:00,70.2,69.9,29.71,WNW,292,0.0,0.0,99,0.00,,,0.00,Wunderground v.1.15,2013-08-29 09:42:00,
2013-08-29 06:12:00,70.1,70.1,29.72,WNW,292,0.0,0.0,100,0.00,,,0.00,Wunderground v.1.15,2013-08-29 10:12:00,
2013-08-29 06:42:00,70.2,70.2,29.73,WNW,292,0.0,0.0,100,0.00,,,0.00,Wunderground v.1.15,2013-08-29 10:42:00,
2013-08-29 07:12:00,70.3,70.0,29.74,WNW,292,0.0,0.0,99,0.00,,,0.00,Wunderground v.1.15,2013-08-29 11:12:00,
2013-08-29 07:42:00,70.7,70.7,29.75,WNW,292,0.0,0.0,100,0.00,,,0.00,Wunderground v.1.15,2013-08-29 11:42:00,
2013-08-29 08:12:00,70.6,70.6,29.76,SE,126,0.0,0.0,100,0.00,,,0.01,Wunderground v.1.15,2013-08-29 12:12:00,
2013-08-29 08:42:00,70.6,70.3,29.77,NE,44,0.0,0.0,99,0.00,,,0.01,Wunderground v.1.15,2013-08-29 12:42:00,
2013-08-29 09:12:00,71.1,70.8,29.78,NE,46,0.0,0.0,99,0.00,,,0.01,Wunderground v.1.15,2013-08-29 13:12:00,
2013-08-29 09:42:00,71.5,70.6,29.79,East,97,0.0,0.0,97,0.00,,,0.01,Wunderground v.1.15,2013-08-29 13:42:00,
2013-08-29 10:12:00,73.0,71.2,29.79,East,98,0.0,0.0,94,0.00,,,0.01,Wunderground v.1.15,2013-08-29 14:12:00,
2013-08-29 10:42:00,-999.9,-99.9,29.79,East,87,0.0,0.0,91,0.00,,,0.01,Wunderground v.1.15,2013-08-29 14:42:00,
2013-08-29 11:12:00,-999.9,-99.9,29.79,East,100,0.0,0.0,85,0.00,,,0.01,Wunderground v.1.15,2013-08-29 15:12:00,
2013-08-29 11:42:00,-999.9,-99.9,29.79,East,80,0.0,0.0,81,0.00,,,0.01,Wunderground v.1.15,2013-08-29 15:42:00,
2013-08-29 12:12:00,-999.9,-99.9,29.79,NE,49,0.0,0.0,82,0.00,,,0.01,Wunderground v.1.15,2013-08-29 16:12:00,
2013-08-29 12:42:00,-999.9,-99.9,29.79,ENE,76,0.0,2.0,79,0.00,,,0.01,Wunderground v.1.15,2013-08-29 16:42:00,
2013-08-29 13:12:00,-999.9,-99.9,29.79,East,86,0.0,0.0,79,0.00,,,0.01,Wunderground v.1.15,2013-08-29 17:12:00,
2013-08-29 13:42:00,-999.9,-99.9,29.79,East,94,0.0,0.0,75,0.00,,,0.01,Wunderground v.1.15,2013-08-29 17:42:00,
2013-08-29 14:12:00,-999.9,-99.9,29.78,East,98,0.0,0.0,76,0.00,,,0.01,Wunderground v.1.15,2013-08-29 18:12:00,
2013-08-29 14:42:00,-999.9,-99.9,29.77,East,98,0.0,0.0,75,0.00,,,0.01,Wunderground v.1.15,2013-08-29 18:42:00,
2013-08-29 15:12:00,-999.9,-99.9,29.77,NNE,31,0.0,0.0,78,0.00,,,0.01,Wunderground v.1.15,2013-08-29 19:12:00,
2013-08-29 15:42:00,-999.9,-99.9,29.77,NW,304,0.0,0.0,75,0.00,,,0.01,Wunderground v.1.15,2013-08-29 19:42:00,
2013-08-29 16:12:00,-999.9,-99.9,29.77,ENE,73,0.0,1.0,75,0.00,,,0.01,Wunderground v.1.15,2013-08-29 20:12:00,
2013-08-29 16:42:00,-999.9,-99.9,29.77,ENE,71,0.0,0.0,74,0.00,,,0.01,Wunderground v.1.15,2013-08-29 20:42:00,
2013-08-29 17:12:00,-999.9,-99.9,29.77,ENE,65,0.0,0.0,74,0.00,,,0.01,Wunderground v.1.15,2013-08-29 21:12:00,
2013-08-29 17:42:00,-999.9,-99.9,29.77,ENE,63,0.0,1.0,80,0.00,,,0.01,Wunderground v.1.15,2013-08-29 21:42:00,
2013-08-29 18:12:00,-999.9,-99.9,29.78,ENE,72,0.0,0.0,78,0.00,,,0.01,Wunderground v.1.15,2013-08-29 22:12:00,
2013-08-29 18:42:00,-999.9,-99.9,29.78,ENE,72,0.0,0.0,82,0.00,,,0.01,Wunderground v.1.15,2013-08-29 22:42:00,
2013-08-29 19:12:00,73.9,69.1,29.79,ENE,72,0.0,0.0,85,0.00,,,0.01,Wunderground v.1.15,2013-08-29 23:12:00,
2013-08-29 19:42:00,72.2,67.8,29.79,SSE,157,0.0,0.0,86,0.00,,,0.01,Wunderground v.1.15,2013-08-29 23:42:00,
2013-08-29 20:12:00,71.3,67.2,29.79,SSE,157,0.0,0.0,87,0.00,,,0.01,Wunderground v.1.15,2013-08-30 00:12:00,
2013-08-29 20:42:00,71.2,67.1,29.80,SSE,157,0.0,0.0,87,0.00,,,0.01,Wunderground v.1.15,2013-08-30 00:42:00,
2013-08-29 21:12:00,71.3,67.2,29.80,SSE,159,0.0,0.0,87,0.00,,,0.01,Wunderground v.1.15,2013-08-30 01:12:00,
2013-08-29 21:42:00,70.3,67.2,29.80,SSE,159,0.0,0.0,90,0.00,,,0.01,Wunderground v.1.15,2013-08-30 01:42:00,
2013-08-29 22:12:00,69.5,67.1,29.81,SSE,159,0.0,0.0,92,0.00,,,0.01,Wunderground v.1.15,2013-08-30 02:12:00,
2013-08-29 22:42:00,69.2,67.4,29.80,ENE,57,0.0,0.0,94,0.00,,,0.01,Wunderground v.1.15,2013-08-30 02:42:00,
2013-08-29 23:12:00,69.8,67.7,29.80,ESE,120,1.0,1.0,93,0.00,,,0.01,Wunderground v.1.15,2013-08-30 03:12:00,
2013-08-29 23:42:00,70.1,68.0,29.80,ENE,68,0.0,0.0,93,0.00,,,0.01,Wunderground v.1.15,2013-08-30 03:42:00,